createdAt,value
2018-04-30T00:00:24.852Z,99671.09
2018-04-30T00:03:27.343Z,99670.09
2018-04-30T00:06:29.823Z,99662.55
2018-04-30T00:09:32.345Z,99652.70
2018-04-30T00:12:34.844Z,99657.89
2018-04-30T00:15:37.368Z,99650.91
2018-04-30T00:18:39.877Z,99645.52
2018-04-30T00:21:42.366Z,99638.51
2018-04-30T00:24:44.868Z,99630.39
2018-04-30T00:27:47.381Z,99624.70
2018-04-30T00:30:49.942Z,99620.52
2018-04-30T00:33:52.446Z,99615.22
2018-04-30T00:36:54.937Z,99612.30
2018-04-30T00:39:57.499Z,99611.31
2018-04-30T00:43:00.029Z,99602.45
2018-04-30T00:46:02.516Z,99592.84
2018-04-30T00:49:05.040Z,99602.42
2018-04-30T00:52:07.532Z,99595.55
2018-04-30T00:55:10.038Z,99591.73
2018-04-30T00:58:12.553Z,99583.76
2018-04-30T01:01:15.053Z,99592.05
2018-04-30T01:04:17.623Z,99586.78
2018-04-30T01:07:20.116Z,99577.95
2018-04-30T01:10:22.604Z,99574.30
2018-04-30T01:13:25.113Z,99559.11
2018-04-30T01:16:27.578Z,99557.50
2018-04-30T01:19:30.072Z,99556.59
2018-04-30T01:22:32.574Z,99560.86
2018-04-30T01:25:35.107Z,99553.61
2018-04-30T01:28:37.605Z,99551.41
2018-04-30T01:31:40.134Z,99547.85
2018-04-30T01:34:42.650Z,99545.34
2018-04-30T01:37:45.161Z,99542.05
2018-04-30T01:40:47.653Z,99546.06
2018-04-30T01:43:50.176Z,99546.25
2018-04-30T01:46:52.674Z,99541.27
2018-04-30T01:49:55.310Z,99535.02
2018-04-30T01:52:57.804Z,99534.05
2018-04-30T01:56:00.296Z,99517.29
2018-04-30T01:59:02.804Z,99525.05
2018-04-30T02:02:05.332Z,99514.17
2018-04-30T02:05:07.828Z,99508.86
2018-04-30T02:08:10.362Z,99499.68
2018-04-30T02:11:12.838Z,99500.97
2018-04-30T02:14:15.338Z,99497.69
2018-04-30T02:17:17.825Z,99476.22
2018-04-30T02:20:20.351Z,99465.92
2018-04-30T02:23:22.848Z,99463.48
2018-04-30T02:26:25.325Z,99451.46
2018-04-30T02:29:27.837Z,99433.47
2018-04-30T02:32:30.328Z,99429.36
2018-04-30T02:35:32.834Z,99420.59
2018-04-30T02:38:35.359Z,99415.33
2018-04-30T02:41:37.883Z,99411.39
2018-04-30T02:44:40.410Z,99409.66
2018-04-30T02:47:42.909Z,99399.91
2018-04-30T02:50:45.465Z,99401.31
2018-04-30T02:53:47.965Z,99400.65
2018-04-30T02:56:50.505Z,99386.00
2018-04-30T02:59:52.995Z,99380.70
2018-04-30T03:02:55.516Z,99380.50
2018-04-30T03:05:58.015Z,99375.68
2018-04-30T03:09:00.546Z,99375.83
2018-04-30T03:12:03.075Z,99356.53
2018-04-30T03:15:05.618Z,99363.45
2018-04-30T03:18:08.118Z,99365.59
2018-04-30T03:21:10.635Z,99372.94
2018-04-30T03:24:13.118Z,99368.83
2018-04-30T03:27:15.680Z,99356.88
2018-04-30T03:30:18.192Z,99360.37
2018-04-30T03:33:20.683Z,99353.06
2018-04-30T03:36:23.179Z,99345.23
2018-04-30T03:39:25.682Z,99340.36
2018-04-30T03:42:28.167Z,99334.25
2018-04-30T03:45:30.655Z,99325.81
2018-04-30T03:48:34.201Z,99323.09
2018-04-30T03:51:36.699Z,99331.69
2018-04-30T03:54:39.195Z,99324.87
2018-04-30T03:57:41.765Z,99329.95
2018-04-30T04:04:35.767Z,99329.09
2018-04-30T04:07:38.271Z,99317.27
2018-04-30T04:10:40.771Z,99321.30
2018-04-30T04:13:43.266Z,99323.44
2018-04-30T04:16:45.754Z,99322.02
2018-04-30T04:19:48.256Z,99314.39
2018-04-30T04:22:50.747Z,99312.45
2018-04-30T04:25:53.298Z,99304.59
2018-04-30T04:28:55.805Z,99301.91
2018-04-30T04:31:58.331Z,99294.66
2018-04-30T04:35:00.828Z,99284.28
2018-04-30T04:38:03.363Z,99289.17
2018-04-30T04:41:05.858Z,99292.50
2018-04-30T04:44:08.416Z,99283.33
2018-04-30T04:47:10.952Z,99275.74
2018-04-30T04:50:13.446Z,99270.45
2018-04-30T04:53:15.943Z,99260.73
2018-04-30T04:56:18.499Z,99270.47
2018-04-30T04:59:21.049Z,99271.18
2018-04-30T05:02:23.625Z,99285.29
2018-04-30T05:05:26.063Z,99290.62
2018-04-30T05:08:28.593Z,99288.19
2018-04-30T05:11:31.144Z,99269.99
2018-04-30T05:14:34.356Z,99255.55
2018-04-30T05:17:36.873Z,99254.45
2018-04-30T05:20:39.440Z,99261.00
2018-04-30T05:23:41.951Z,99255.23
2018-04-30T05:26:44.462Z,99248.13
2018-04-30T05:29:46.955Z,99247.58
2018-04-30T05:32:49.537Z,99243.45
2018-04-30T05:35:52.066Z,99241.21
2018-04-30T05:38:54.580Z,99239.72
2018-04-30T05:41:57.073Z,99240.05
2018-04-30T05:44:59.616Z,99246.12
2018-04-30T05:48:02.135Z,99235.04
2018-04-30T05:51:04.670Z,99249.83
2018-04-30T05:54:07.420Z,99234.06
2018-04-30T05:57:09.961Z,99224.59
2018-04-30T06:00:12.449Z,99219.80
2018-04-30T06:03:15.006Z,99211.75
2018-04-30T06:06:17.504Z,99194.02
2018-04-30T06:09:20.070Z,99190.05
2018-04-30T06:12:22.560Z,99186.17
2018-04-30T06:15:25.081Z,99181.11
2018-04-30T06:18:27.592Z,99181.05
2018-04-30T06:21:30.122Z,99178.49
2018-04-30T06:24:32.615Z,99166.91
2018-04-30T06:27:35.243Z,99164.16
2018-04-30T06:30:37.740Z,99165.88
2018-04-30T06:33:40.317Z,99167.88
2018-04-30T06:36:42.873Z,99171.88
2018-04-30T06:39:45.412Z,99162.73
2018-04-30T06:42:47.937Z,99175.78
2018-04-30T06:45:50.463Z,99167.02
2018-04-30T06:48:52.999Z,99152.36
2018-04-30T06:51:55.527Z,99142.48
2018-04-30T06:54:58.038Z,99147.55
2018-04-30T06:58:00.562Z,99146.37
2018-04-30T07:01:03.091Z,99135.53
2018-04-30T07:04:05.616Z,99134.83
2018-04-30T07:07:08.152Z,99133.22
2018-04-30T07:10:10.687Z,99129.12
2018-04-30T07:13:13.230Z,99128.00
2018-04-30T07:16:15.772Z,99117.08
2018-04-30T07:19:18.280Z,99113.43
2018-04-30T07:22:20.844Z,99107.30
2018-04-30T07:25:23.357Z,99111.30
2018-04-30T07:28:25.886Z,99113.95
2018-04-30T07:31:28.399Z,99113.55
2018-04-30T07:34:31.058Z,99109.06
2018-04-30T07:37:33.674Z,99108.41
2018-04-30T07:40:36.237Z,99112.14
2018-04-30T07:43:38.757Z,99112.60
2018-04-30T07:46:41.591Z,99104.20
2018-04-30T07:49:44.093Z,99104.08
2018-04-30T07:52:46.691Z,99105.57
2018-04-30T07:55:49.629Z,99102.99
2018-04-30T07:58:52.287Z,99110.39
2018-04-30T08:01:54.901Z,99097.42
2018-04-30T08:04:58.062Z,99104.73
2018-04-30T08:08:00.589Z,99099.20
2018-04-30T08:11:03.182Z,99099.84
2018-04-30T08:14:05.755Z,99102.14
2018-04-30T08:17:09.651Z,99102.35
2018-04-30T08:20:12.212Z,99092.61
2018-04-30T08:23:14.727Z,99094.52
2018-04-30T08:26:17.271Z,99083.49
2018-04-30T08:29:19.874Z,99095.27
2018-04-30T08:32:22.350Z,99093.12
2018-04-30T08:35:24.880Z,99098.70
2018-04-30T08:38:27.382Z,99095.59
2018-04-30T08:41:30.001Z,99101.00
2018-04-30T08:44:32.524Z,99104.46
2018-04-30T08:47:35.262Z,99097.01
2018-04-30T08:50:37.868Z,99091.24
2018-04-30T08:53:40.429Z,99096.53
2018-04-30T08:56:42.972Z,99101.75
2018-04-30T08:59:45.607Z,99103.94
2018-04-30T09:02:48.149Z,99119.27
2018-04-30T09:05:50.723Z,99112.73
2018-04-30T09:08:53.267Z,99108.02
2018-04-30T09:11:56.491Z,99108.53
2018-04-30T09:14:59.093Z,99113.28
2018-04-30T09:18:01.753Z,99109.87
2018-04-30T09:21:04.264Z,99116.17
2018-04-30T09:24:06.773Z,99113.92
2018-04-30T09:27:09.295Z,99110.67
2018-04-30T09:30:11.862Z,99119.44
2018-04-30T09:33:14.396Z,99119.17
2018-04-30T09:36:16.998Z,99116.64
2018-04-30T09:39:19.640Z,99138.39
2018-04-30T09:42:22.315Z,99120.75
2018-04-30T09:45:24.876Z,99130.58
2018-04-30T09:48:27.444Z,99147.63
2018-04-30T09:51:29.966Z,99143.77
2018-04-30T09:54:32.545Z,99136.08
2018-04-30T09:57:35.043Z,99140.82
2018-04-30T10:00:37.699Z,99144.25
2018-04-30T10:03:43.655Z,99169.21
2018-04-30T10:06:48.740Z,99171.19
2018-04-30T10:09:51.320Z,99176.32
2018-04-30T10:12:57.576Z,99171.19
2018-04-30T10:16:01.535Z,99184.92
2018-04-30T10:19:04.572Z,99192.34
2018-04-30T10:22:08.766Z,99200.36
2018-04-30T10:25:18.094Z,99214.12
2018-04-30T10:28:21.938Z,99257.21
2018-04-30T10:31:24.740Z,99247.30
2018-04-30T10:34:27.413Z,99243.77
2018-04-30T10:37:30.049Z,99277.48
2018-04-30T10:40:32.641Z,99283.98
2018-04-30T10:43:35.225Z,99311.11
2018-04-30T10:46:37.888Z,99316.52
2018-04-30T10:49:40.463Z,99320.33
2018-04-30T10:52:43.922Z,99336.05
2018-04-30T10:55:46.480Z,99335.69
2018-04-30T10:58:49.075Z,99322.50
2018-04-30T11:01:51.684Z,99339.89
2018-04-30T11:04:54.246Z,99361.57
2018-04-30T11:07:58.034Z,99360.66
2018-04-30T11:11:00.550Z,99361.14
2018-04-30T11:14:03.166Z,99366.27
2018-04-30T11:17:05.710Z,99403.02
2018-04-30T11:20:08.265Z,99387.58
2018-04-30T11:23:10.765Z,99388.38
2018-04-30T11:26:13.303Z,99396.98
2018-04-30T11:29:15.847Z,99402.17
2018-04-30T11:32:18.357Z,99392.75
2018-04-30T11:35:21.033Z,99417.22
2018-04-30T11:38:23.581Z,99413.98
2018-04-30T11:41:26.185Z,99414.87
2018-04-30T11:44:28.787Z,99431.33
2018-04-30T11:47:31.360Z,99416.87
2018-04-30T11:50:33.931Z,99427.21
2018-04-30T11:53:36.500Z,99425.11
2018-04-30T11:56:39.099Z,99443.48
2018-04-30T11:59:42.022Z,99454.91
2018-04-30T12:02:44.591Z,99449.86
2018-04-30T12:05:47.227Z,99457.33
2018-04-30T12:08:49.727Z,99467.34
2018-04-30T12:11:52.318Z,99447.80
2018-04-30T12:14:54.891Z,99460.50
2018-04-30T12:17:57.462Z,99459.63
2018-04-30T12:21:00.007Z,99478.62
2018-04-30T12:24:02.533Z,99464.62
2018-04-30T12:27:05.094Z,99464.16
2018-04-30T12:30:07.656Z,99467.16
2018-04-30T12:33:10.199Z,99475.83
2018-04-30T12:36:12.802Z,99504.90
2018-04-30T12:39:15.299Z,99484.13
2018-04-30T12:42:17.885Z,99478.80
2018-04-30T12:45:20.559Z,99490.03
2018-04-30T12:48:23.145Z,99506.81
2018-04-30T12:51:25.929Z,99503.26
2018-04-30T12:54:28.528Z,99511.41
2018-04-30T12:57:31.158Z,99502.69
2018-04-30T13:00:34.633Z,99509.41
2018-04-30T13:03:37.213Z,99515.39
2018-04-30T13:06:40.580Z,99506.62
2018-04-30T13:09:43.794Z,99512.70
2018-04-30T13:12:46.404Z,99525.73
2018-04-30T13:15:49.025Z,99529.08
2018-04-30T13:18:51.782Z,99535.11
2018-04-30T13:21:54.308Z,99548.32
2018-04-30T13:24:56.872Z,99541.60
2018-04-30T13:27:59.461Z,99537.95
2018-04-30T13:31:02.028Z,99569.58
2018-04-30T13:34:04.592Z,99544.66
2018-04-30T13:37:07.197Z,99549.59
2018-04-30T13:40:09.798Z,99543.17
2018-04-30T13:43:12.298Z,99552.24
2018-04-30T13:46:14.864Z,99542.05
2018-04-30T13:49:17.438Z,99551.00
2018-04-30T13:52:20.007Z,99529.47
2018-04-30T13:55:23.510Z,99538.16
2018-04-30T13:58:26.035Z,99538.34
2018-04-30T14:01:28.574Z,99539.05
2018-04-30T14:04:31.137Z,99548.20
2018-04-30T14:07:33.708Z,99540.55
2018-04-30T14:10:36.323Z,99561.89
2018-04-30T14:13:38.845Z,99541.45
2018-04-30T14:16:41.478Z,99552.58
2018-04-30T14:19:44.090Z,99560.64
2018-04-30T14:22:46.842Z,99541.30
2018-04-30T14:25:49.512Z,99543.74
2018-04-30T14:28:52.078Z,99554.10
2018-04-30T14:31:54.659Z,99560.55
2018-04-30T14:34:58.131Z,99561.83
2018-04-30T14:38:00.784Z,99563.41
2018-04-30T14:41:03.339Z,99563.17
2018-04-30T14:44:05.975Z,99568.61
2018-04-30T14:47:08.506Z,99575.81
2018-04-30T14:50:11.468Z,99582.59
2018-04-30T14:53:13.974Z,99572.16
2018-04-30T14:56:16.525Z,99578.53
2018-04-30T14:59:19.096Z,99595.73
2018-04-30T15:02:21.629Z,99587.48
2018-04-30T15:05:24.857Z,99617.13
2018-04-30T15:08:27.390Z,99600.70
2018-04-30T15:11:29.960Z,99603.58
2018-04-30T15:14:32.580Z,99616.30
2018-04-30T15:17:35.099Z,99616.84
2018-04-30T15:20:37.609Z,99616.58
2018-04-30T15:23:40.378Z,99614.73
2018-04-30T15:26:42.939Z,99622.74
2018-04-30T15:29:45.473Z,99618.66
2018-04-30T15:32:48.222Z,99627.22
2018-04-30T15:35:50.841Z,99616.53
2018-04-30T15:38:53.455Z,99637.24
2018-04-30T15:41:56.235Z,99631.22
2018-04-30T15:44:58.767Z,99616.77
2018-04-30T15:48:01.372Z,99629.03
2018-04-30T15:51:03.886Z,99614.00
2018-04-30T15:54:06.474Z,99624.62
2018-04-30T15:57:09.029Z,99630.52
2018-04-30T16:00:13.159Z,99628.75
2018-04-30T16:03:16.489Z,99638.66
2018-04-30T16:06:19.129Z,99648.61
2018-04-30T16:09:21.746Z,99650.87
2018-04-30T16:12:25.110Z,99666.39
2018-04-30T16:15:27.705Z,99676.00
2018-04-30T16:18:32.638Z,99666.59
2018-04-30T16:21:35.242Z,99678.65
2018-04-30T16:24:39.109Z,99669.83
2018-04-30T16:27:45.540Z,99676.75
2018-04-30T16:30:48.041Z,99689.58
2018-04-30T16:33:50.610Z,99691.43
2018-04-30T16:36:53.167Z,99692.76
2018-04-30T16:39:55.704Z,99694.11
2018-04-30T16:42:58.250Z,99699.58
2018-04-30T16:46:00.857Z,99702.27
2018-04-30T16:49:03.404Z,99689.90
2018-04-30T16:52:06.075Z,99695.50
2018-04-30T16:55:08.721Z,99715.86
2018-04-30T16:58:11.264Z,99702.21
2018-04-30T17:01:13.803Z,99706.64
2018-04-30T17:04:16.428Z,99704.23
2018-04-30T17:07:18.951Z,99716.57
2018-04-30T17:10:21.611Z,99710.02
2018-04-30T17:13:24.194Z,99722.27
2018-04-30T17:16:26.821Z,99734.66
2018-04-30T17:19:29.410Z,99713.76
2018-04-30T17:22:32.145Z,99730.88
2018-04-30T17:25:34.750Z,99729.98
2018-04-30T17:28:37.429Z,99722.81
2018-04-30T17:31:41.125Z,99731.63
2018-04-30T17:34:44.393Z,99729.23
2018-04-30T17:37:46.905Z,99742.58
2018-04-30T17:40:50.328Z,99740.48
2018-04-30T17:43:52.909Z,99754.05
2018-04-30T17:46:56.099Z,99747.25
2018-04-30T17:49:59.582Z,99756.53
2018-04-30T17:53:02.959Z,99766.91
2018-04-30T17:56:06.323Z,99771.65
2018-04-30T17:59:09.034Z,99767.88
2018-04-30T18:02:11.677Z,99775.22
2018-04-30T18:05:14.274Z,99768.22
2018-04-30T18:08:16.866Z,99768.15
2018-04-30T18:11:19.458Z,99772.16
2018-04-30T18:14:22.164Z,99774.48
2018-04-30T18:17:24.791Z,99784.25
2018-04-30T18:20:32.391Z,99788.14
2018-04-30T18:23:38.084Z,99786.63
2018-04-30T18:26:40.740Z,99775.17
2018-04-30T18:29:43.462Z,99782.09
2018-04-30T18:32:49.356Z,99778.40
2018-04-30T18:35:52.460Z,99766.05
2018-04-30T18:38:55.135Z,99763.45
2018-04-30T18:41:57.838Z,99777.52
2018-04-30T18:45:00.437Z,99791.14
2018-04-30T18:48:03.010Z,99797.83
2018-04-30T18:51:06.374Z,99796.80
2018-04-30T18:54:08.982Z,99795.19
2018-04-30T18:57:11.668Z,99796.45
2018-04-30T19:00:14.350Z,99806.57
2018-04-30T19:03:16.999Z,99803.10
2018-04-30T19:06:20.554Z,99807.39
2018-04-30T19:12:32.354Z,99827.95
2018-04-30T19:15:35.109Z,99832.84
2018-04-30T19:18:37.718Z,99840.73
2018-04-30T19:21:40.366Z,99838.86
2018-04-30T19:24:43.094Z,99842.64
2018-04-30T19:27:45.765Z,99843.48
2018-04-30T19:30:48.344Z,99836.97
2018-04-30T19:33:51.938Z,99839.57
2018-04-30T19:36:54.708Z,99844.42
2018-04-30T19:39:58.096Z,99850.03
2018-04-30T19:43:00.790Z,99849.08
2018-04-30T19:46:03.609Z,99849.97
2018-04-30T19:52:16.804Z,99847.19
2018-04-30T19:55:20.713Z,99849.80
2018-04-30T19:58:23.447Z,99849.59
2018-04-30T20:01:26.280Z,99854.20
2018-04-30T20:04:29.088Z,99855.61
2018-04-30T20:54:22.865Z,99899.73
2018-04-30T20:57:25.477Z,99892.37
2018-04-30T21:00:28.057Z,99894.43
2018-04-30T21:03:30.652Z,99891.59
2018-04-30T21:06:36.120Z,99900.55
2018-04-30T21:09:38.713Z,99904.67
2018-04-30T21:12:41.301Z,99903.70
2018-04-30T21:15:43.928Z,99911.31
2018-04-30T21:18:46.501Z,99913.09
2018-04-30T21:21:49.118Z,99905.06
2018-04-30T21:24:51.680Z,99905.88
2018-04-30T21:27:54.367Z,99912.41
2018-04-30T21:30:57.228Z,99905.53
2018-04-30T21:33:59.772Z,99914.28
2018-04-30T21:37:08.198Z,99911.78
2018-04-30T21:40:19.432Z,99911.59
2018-04-30T21:43:22.113Z,99923.59
2018-04-30T21:46:24.677Z,99919.44
2018-04-30T21:49:27.191Z,99917.03
2018-04-30T21:52:29.773Z,99919.26
2018-04-30T21:55:32.307Z,99920.16
2018-04-30T21:58:34.857Z,99921.31
2018-04-30T22:01:37.436Z,99920.23
2018-04-30T22:04:40.012Z,99920.45
2018-04-30T22:07:42.573Z,99913.68
2018-04-30T22:10:45.167Z,99919.87
2018-04-30T22:13:47.734Z,99919.80
2018-04-30T22:16:50.276Z,99915.21
2018-04-30T22:19:52.798Z,99921.84
2018-04-30T22:22:55.371Z,99919.46
2018-04-30T22:25:57.941Z,99908.77
2018-04-30T22:29:00.532Z,99912.02
2018-04-30T22:32:03.083Z,99916.38
2018-04-30T22:35:05.714Z,99912.39
2018-04-30T22:38:08.255Z,99916.80
2018-04-30T22:41:12.351Z,99920.38
2018-04-30T22:44:14.914Z,99927.66
2018-04-30T22:47:17.518Z,99929.86
2018-04-30T22:50:20.239Z,99938.98
2018-04-30T22:53:22.824Z,99948.41
2018-04-30T22:56:25.469Z,99942.95
2018-04-30T22:59:28.048Z,99945.53
2018-04-30T23:02:30.650Z,99947.56
2018-04-30T23:05:33.235Z,99947.45
2018-04-30T23:08:35.786Z,99948.19
2018-04-30T23:11:38.351Z,99937.29
2018-04-30T23:14:40.895Z,99948.58
2018-04-30T23:17:43.506Z,99944.23
2018-04-30T23:23:54.865Z,99925.47
2018-04-30T23:26:57.400Z,99926.25
2018-04-30T23:29:59.958Z,99927.87
2018-04-30T23:33:14.741Z,99928.13
2018-04-30T23:36:17.293Z,99924.80
2018-04-30T23:39:19.814Z,99923.70
2018-04-30T23:42:22.320Z,99930.64
2018-04-30T23:45:24.842Z,99922.70
2018-04-30T23:48:27.408Z,99921.16
2018-04-30T23:51:29.950Z,99926.03
2018-04-30T23:54:32.470Z,99922.19
2018-04-30T23:57:35.021Z,99920.83
